Decoded Metar for CYET (EDSON in AB, CANADA) (IATA:YET) | Meteo·Mobile Aviation Weather
aviador You're here:

CYET Decoded Metar

EDSON in AB, CANADA
Report Time2019-03-19 22:00:00
UTC Time2019-03-19 22:55:23
Flight Rules vfr VFR
Wind240° at 03 kt
W.Decomp.*RWY 25: 2.6 kt HW 1.5 kt LCW
W.Rank240° ranks 9
Current wind is below 240° avg. (4.8)
Visibility9999 m
Phenomena:N/A
Clouds:N/A
Expected CloudBase > 11,600 ft AGL from Temp-Dew spread
CeilingNone
Temp17°C (ISA +8)
Dew Point-12°C (13% RH)
AAT12.7°C
QNH1020 hPa
Density Alt3,776 ft
Elevation3,035 ft
Report Wrong Elevation
Raw Report
CYET 192200Z AUTO 24003KT 210V310 9SM CLR 17/M12 A3013 RMK SLP225
DENSITY ALT 3700FT=

Extra information for CYET:More info

Metar Taf Metar & Taf Last 4 Metars F.Rules Stats Wind Profile Meteogram Temp Stats Airport Information Weather charts Add Link Nearby VenuesMetar ALERT Operation Metar Decoded Social comments